Главная страница
METAR-TAF:

METAR-TAF

Аэропорты :

Воронеж, Россия

широта: 51-39N, долгота: 039-15E, высота над уровнем моря: 154 м

Текущие метеонаблюдения

Эта сводка был подготовлена 21 минут назад, в 06:00 UTC
Ветер 12 Узел от юго-юго-восточный
Температура 22°C
Влажность 69%
Давление 1006 hPa
Видимость 10 км и более
Нет облачности ниже 1500 м, и нет кучево-дождевой облачности

METAR: UUOO 230600Z 15006MPS CAVOK 22/16 Q1006 R12/190060 NOSIG RMK QFE740

Время: 09:21 (06:21 UTC)

Прогноз

Эта сводка был подготовлена 1 час и 21 минут назад, в 05:00 UTC
Прогноз действительный с 23-го 06 UTC до 23-го 15 UTC
Ветер 14 Узел от юго-восточный
Видимость 10 км и более
Рассеянная облачность на высоте 2000 фута, Кучево-дождевые.
временами
С 23-го 06 UTC до 23-го 12 UTC
Ветер 29 Узел переменных направлений
Рассеянная облачность на высоте 1500 фута, Кучево-дождевые.
гроза, небольшой дождь, шквалы

TAF: UUOO 230500Z 2306/2315 13007MPS 9999 BKN020CB TEMPO 2306/2312 VRB15MPS -TSRA SQ BKN015CB

Метеонаблюдения и прогнозы для более 4000 аэропортов (сводки METAR и TAF).

Имеющиеся станции представлены на карте желтыми и красными точками.

Чтобы увидеть название станции, наведите на нее мышь.

Затем щелкните, чтобы увидеть метеонаблюдения и метеопрогнозы.

Управление картой: чтобы увеличить масштаб, щелкните зеленые кнопки с черным крестиком; чтобы уменьшить масштаб, щелкните зеленую кнопку с тире; для просмотра соседних карт щелкайте зеленые стрелки.


METAR-TAF: